createdAt,value
2022-08-03T00:02:50.739Z,18.86
2022-08-03T00:06:52.244Z,18.90
2022-08-03T00:10:53.731Z,18.88
2022-08-03T00:14:55.196Z,18.83
2022-08-03T00:18:56.653Z,18.81
2022-08-03T00:22:58.159Z,18.75
2022-08-03T00:26:59.595Z,18.65
2022-08-03T00:31:01.092Z,18.67
2022-08-03T00:35:04.359Z,18.58
2022-08-03T00:39:10.255Z,18.54
2022-08-03T00:43:11.800Z,18.47
2022-08-03T00:47:13.486Z,18.41
2022-08-03T00:51:15.148Z,18.46
2022-08-03T00:55:17.042Z,18.50
2022-08-03T00:59:18.587Z,18.52
2022-08-03T01:03:20.066Z,18.55
2022-08-03T01:07:43.889Z,18.44
2022-08-03T01:12:00.188Z,18.39
2022-08-03T01:16:09.699Z,18.66
2022-08-03T01:20:14.316Z,18.74
2022-08-03T01:24:18.479Z,18.59
2022-08-03T01:28:40.195Z,17.92
2022-08-03T01:33:02.687Z,18.51
2022-08-03T01:37:08.840Z,18.80
2022-08-03T01:41:35.183Z,18.76
2022-08-03T01:45:38.653Z,18.80
2022-08-03T01:49:45.258Z,18.81
2022-08-03T01:53:49.119Z,18.73
2022-08-03T01:58:04.678Z,18.95
2022-08-03T02:02:31.937Z,18.59
2022-08-03T02:06:59.942Z,18.90
2022-08-03T02:10:58.703Z,18.97
2022-08-03T02:15:01.977Z,19.02
2022-08-03T02:19:06.579Z,19.01
2022-08-03T02:23:08.667Z,19.14
2022-08-03T02:27:22.230Z,19.03
2022-08-03T02:31:28.486Z,19.15
2022-08-03T02:35:32.242Z,19.11
2022-08-03T02:39:35.603Z,19.07
2022-08-03T02:43:40.219Z,19.13
2022-08-03T02:48:04.066Z,19.15
2022-08-03T02:52:12.563Z,19.15
2022-08-03T02:56:19.159Z,19.26
2022-08-03T03:00:27.972Z,19.24
2022-08-03T03:04:33.240Z,19.11
2022-08-03T03:08:35.263Z,19.01
2022-08-03T03:12:41.445Z,19.04
2022-08-03T03:16:44.553Z,18.95
2022-08-03T03:20:53.139Z,18.79
2022-08-03T03:24:55.878Z,18.94
2022-08-03T03:28:57.769Z,18.80
2022-08-03T03:32:59.459Z,18.51
2022-08-03T03:37:01.584Z,18.63
2022-08-03T03:41:04.365Z,18.60
2022-08-03T03:45:09.690Z,18.46
2022-08-03T03:49:11.617Z,18.48
2022-08-03T03:53:14.698Z,18.38
2022-08-03T03:57:17.276Z,18.31
2022-08-03T04:01:19.342Z,18.41
2022-08-03T04:05:42.870Z,18.45
2022-08-03T04:10:14.167Z,18.54
2022-08-03T04:14:20.780Z,18.58
2022-08-03T04:18:23.503Z,18.71
2022-08-03T04:22:32.536Z,18.74
2022-08-03T04:26:37.463Z,18.53
2022-08-03T04:30:47.485Z,18.48
2022-08-03T04:34:49.438Z,18.30
2022-08-03T04:39:04.920Z,18.33
2022-08-03T04:43:09.000Z,18.53
2022-08-03T04:47:10.492Z,18.82
2022-08-03T04:51:13.203Z,18.95
2022-08-03T04:55:32.020Z,19.22
2022-08-03T04:59:33.934Z,19.16
2022-08-03T05:03:40.662Z,19.18
2022-08-03T05:07:42.934Z,19.21
2022-08-03T05:11:45.551Z,19.30
2022-08-03T05:15:47.000Z,19.44
2022-08-03T05:19:48.442Z,19.48
2022-08-03T05:23:49.907Z,19.65
2022-08-03T05:27:51.373Z,19.95
2022-08-03T05:31:52.841Z,20.06
2022-08-03T05:35:55.865Z,20.12
2022-08-03T05:40:06.055Z,20.37
2022-08-03T05:44:07.568Z,20.52
2022-08-03T05:48:08.992Z,20.67
2022-08-03T05:52:21.516Z,20.85
2022-08-03T05:56:25.458Z,21.06
2022-08-03T06:00:27.049Z,21.26
2022-08-03T06:04:29.131Z,21.42
2022-08-03T06:08:30.649Z,21.54
2022-08-03T06:12:35.849Z,21.60
2022-08-03T06:16:37.321Z,21.82
2022-08-03T06:20:38.782Z,21.91
2022-08-03T06:24:41.564Z,22.11
2022-08-03T06:28:55.545Z,22.26
2022-08-03T06:32:57.020Z,22.37
2022-08-03T06:37:01.948Z,22.62
2022-08-03T06:41:04.016Z,22.75
2022-08-03T06:45:07.385Z,22.86
2022-08-03T06:49:09.416Z,23.03
2022-08-03T06:53:19.834Z,23.26
2022-08-03T06:57:23.074Z,23.40
2022-08-03T07:01:24.560Z,23.56
2022-08-03T07:05:26.397Z,23.86
2022-08-03T07:09:28.227Z,23.97
2022-08-03T07:13:29.723Z,24.23
2022-08-03T07:17:33.371Z,24.31
2022-08-03T07:21:34.823Z,24.33
2022-08-03T07:25:36.327Z,24.45
2022-08-03T07:29:37.936Z,24.54
2022-08-03T07:33:39.353Z,24.71
2022-08-03T07:37:40.847Z,24.86
2022-08-03T07:41:55.564Z,25.16
2022-08-03T07:45:57.217Z,25.14
2022-08-03T07:49:58.700Z,25.31
2022-08-03T07:54:00.897Z,25.59
2022-08-03T07:58:21.990Z,25.78
2022-08-03T08:02:25.663Z,25.55
2022-08-03T08:06:27.135Z,25.77
2022-08-03T08:10:28.708Z,25.59
2022-08-03T08:14:30.170Z,26.12
2022-08-03T08:18:32.001Z,26.03
2022-08-03T08:22:33.509Z,26.22
2022-08-03T08:26:35.687Z,26.18
2022-08-03T08:30:37.143Z,26.42
2022-08-03T08:34:38.726Z,26.61
2022-08-03T08:38:42.576Z,26.61
2022-08-03T08:42:58.039Z,26.67
2022-08-03T08:47:03.011Z,26.83
2022-08-03T08:51:05.637Z,26.94
2022-08-03T08:55:09.039Z,27.10
2022-08-03T08:59:10.675Z,27.38
2022-08-03T09:03:12.453Z,27.38
2022-08-03T09:07:24.169Z,27.32
2022-08-03T09:11:55.707Z,27.51
2022-08-03T09:16:00.960Z,27.83
2022-08-03T09:20:10.274Z,28.23
2022-08-03T09:24:25.740Z,28.65
2022-08-03T09:28:59.800Z,28.46
2022-08-03T09:33:06.543Z,28.33
2022-08-03T09:37:16.685Z,28.38
2022-08-03T09:41:19.629Z,29.28
2022-08-03T09:45:27.851Z,29.30
2022-08-03T09:49:30.085Z,28.66
2022-08-03T09:53:31.661Z,28.99
2022-08-03T09:57:33.421Z,29.98
2022-08-03T10:01:36.089Z,29.84
2022-08-03T10:05:39.039Z,29.69
2022-08-03T10:09:57.301Z,30.01
2022-08-03T10:14:01.502Z,30.19
2022-08-03T10:18:03.828Z,30.14
2022-08-03T10:22:13.426Z,30.09
2022-08-03T10:26:22.615Z,29.88
2022-08-03T10:30:27.681Z,30.68
2022-08-03T10:34:35.602Z,31.09
2022-08-03T10:38:54.208Z,31.32
2022-08-03T10:42:59.465Z,30.93
2022-08-03T10:47:01.592Z,31.21
2022-08-03T10:51:03.754Z,30.77
2022-08-03T10:55:51.230Z,31.85
2022-08-03T10:59:55.498Z,32.44
2022-08-03T11:03:57.449Z,31.87
2022-08-03T11:08:18.654Z,32.12
2022-08-03T11:12:28.381Z,31.23
2022-08-03T11:16:36.042Z,32.45
2022-08-03T11:20:59.158Z,32.31
2022-08-03T11:25:01.176Z,32.05
2022-08-03T11:29:28.994Z,32.40
2022-08-03T11:33:31.624Z,31.73
2022-08-03T11:37:36.106Z,32.40
2022-08-03T11:41:45.067Z,32.82
2022-08-03T11:45:56.958Z,32.94
2022-08-03T11:50:02.322Z,33.85
2022-08-03T11:54:05.900Z,33.99
2022-08-03T11:58:58.249Z,34.77
2022-08-03T12:02:28.861Z,34.22
2022-08-03T12:06:30.301Z,34.86
2022-08-03T12:10:32.363Z,35.10
2022-08-03T12:14:49.770Z,35.12
2022-08-03T12:18:58.693Z,35.12
2022-08-03T12:23:05.637Z,34.70
2022-08-03T12:27:07.174Z,34.51
2022-08-03T12:31:11.846Z,35.01
2022-08-03T12:35:26.553Z,34.80
2022-08-03T12:39:30.791Z,33.41
2022-08-03T12:43:37.624Z,33.43
2022-08-03T12:47:59.142Z,35.14
2022-08-03T12:52:04.065Z,35.78
2022-08-03T12:56:06.961Z,33.83
2022-08-03T13:00:28.889Z,34.93
2022-08-03T13:04:36.264Z,35.13
2022-08-03T13:08:38.051Z,35.84
2022-08-03T13:12:48.040Z,35.70
2022-08-03T13:16:49.598Z,35.34
2022-08-03T13:20:51.168Z,35.66
2022-08-03T13:24:58.143Z,36.39
2022-08-03T13:28:59.571Z,35.97
2022-08-03T13:33:01.040Z,35.36
2022-08-03T13:37:10.196Z,35.78
2022-08-03T13:41:15.454Z,35.43
2022-08-03T13:45:17.733Z,36.70
2022-08-03T13:49:19.597Z,36.54
2022-08-03T13:53:21.103Z,34.47
2022-08-03T13:58:03.677Z,36.33
2022-08-03T14:01:54.792Z,34.30
2022-08-03T14:05:56.613Z,36.23
2022-08-03T14:09:58.146Z,36.34
2022-08-03T14:13:59.625Z,36.98
2022-08-03T14:18:01.040Z,36.16
2022-08-03T14:22:06.851Z,36.39
2022-08-03T14:26:09.283Z,34.94
2022-08-03T14:30:11.794Z,35.55
2022-08-03T14:34:13.316Z,35.57
2022-08-03T14:38:14.996Z,34.38
2022-08-03T14:42:16.669Z,36.27
2022-08-03T14:46:18.139Z,37.98
2022-08-03T14:50:32.314Z,36.26
2022-08-03T14:54:40.772Z,36.75
2022-08-03T14:58:42.465Z,36.47
2022-08-03T15:02:44.010Z,35.28
2022-08-03T15:06:45.562Z,35.68
2022-08-03T15:10:54.292Z,36.85
2022-08-03T15:14:56.385Z,36.21
2022-08-03T15:18:58.063Z,36.15
2022-08-03T15:22:59.502Z,35.37
2022-08-03T15:27:01.092Z,36.01
2022-08-03T15:31:07.809Z,37.32
2022-08-03T15:35:09.322Z,38.70
2022-08-03T15:39:10.780Z,37.95
2022-08-03T15:43:12.314Z,38.22
2022-08-03T15:47:13.815Z,38.06
2022-08-03T15:51:15.368Z,37.99
2022-08-03T15:55:17.357Z,36.25
2022-08-03T15:59:19.892Z,35.36
2022-08-03T16:03:21.585Z,36.76
2022-08-03T16:07:58.591Z,36.03
2022-08-03T16:12:04.584Z,36.35
2022-08-03T16:16:06.111Z,36.21
2022-08-03T16:20:10.862Z,35.89
2022-08-03T16:24:31.867Z,36.23
2022-08-03T16:28:35.306Z,36.43
2022-08-03T16:32:38.326Z,36.17
2022-08-03T16:36:39.780Z,36.73
2022-08-03T16:40:41.215Z,37.17
2022-08-03T16:44:42.962Z,37.36
2022-08-03T16:48:44.421Z,35.15
2022-08-03T16:52:47.453Z,36.70
2022-08-03T16:56:49.889Z,37.26
2022-08-03T17:00:51.353Z,34.94
2022-08-03T17:04:53.703Z,36.26
2022-08-03T17:08:55.689Z,35.61
2022-08-03T17:12:57.159Z,35.97
2022-08-03T17:17:01.503Z,34.44
2022-08-03T17:21:06.018Z,35.17
2022-08-03T17:25:10.745Z,34.87
2022-08-03T17:29:25.908Z,33.95
2022-08-03T17:33:35.521Z,33.45
2022-08-03T17:37:58.241Z,32.82
2022-08-03T17:42:03.709Z,33.64
2022-08-03T17:46:07.164Z,33.67
2022-08-03T17:50:25.379Z,33.38
2022-08-03T17:55:57.871Z,33.37
2022-08-03T17:59:59.001Z,32.91
2022-08-03T18:04:11.145Z,32.57
2022-08-03T18:08:28.765Z,32.42
2022-08-03T18:12:44.495Z,32.28
2022-08-03T18:17:03.021Z,32.05
2022-08-03T18:21:06.521Z,31.96
2022-08-03T18:25:11.087Z,31.93
2022-08-03T18:29:15.119Z,31.71
2022-08-03T18:34:18.212Z,31.57
2022-08-03T18:37:52.044Z,31.26
2022-08-03T18:41:53.949Z,30.97
2022-08-03T18:46:03.355Z,29.71
2022-08-03T18:50:26.988Z,29.68
2022-08-03T18:54:45.693Z,29.56
2022-08-03T18:59:30.004Z,29.38
2022-08-03T19:03:42.723Z,29.25
2022-08-03T19:08:02.470Z,28.81
2022-08-03T19:12:26.617Z,28.75
2022-08-03T19:16:38.863Z,28.70
2022-08-03T19:20:41.689Z,28.81
2022-08-03T19:24:51.878Z,28.75
2022-08-03T19:28:56.649Z,28.43
2022-08-03T19:33:00.470Z,28.42
2022-08-03T19:37:03.434Z,28.33
2022-08-03T19:41:06.328Z,28.22
2022-08-03T19:45:11.458Z,28.02
2022-08-03T19:49:19.940Z,27.84
2022-08-03T19:53:23.892Z,27.49
2022-08-03T19:57:38.528Z,27.48
2022-08-03T20:01:50.724Z,27.20
2022-08-03T20:05:55.127Z,27.23
2022-08-03T20:09:57.070Z,27.13
2022-08-03T20:13:59.351Z,26.91
2022-08-03T20:18:01.518Z,26.61
2022-08-03T20:22:03.188Z,26.76
2022-08-03T20:26:07.355Z,26.55
2022-08-03T20:30:12.295Z,26.51
2022-08-03T20:34:13.722Z,26.37
2022-08-03T20:38:19.529Z,26.28
2022-08-03T20:42:22.138Z,26.20
2022-08-03T20:46:31.014Z,26.08
2022-08-03T20:50:40.779Z,25.87
2022-08-03T20:54:46.352Z,25.86
2022-08-03T20:58:54.390Z,25.77
2022-08-03T21:02:55.919Z,25.60
2022-08-03T21:07:03.755Z,25.57
2022-08-03T21:11:19.169Z,25.42
2022-08-03T21:16:11.893Z,25.41
2022-08-03T21:19:52.048Z,25.28
2022-08-03T21:23:55.105Z,25.01
2022-08-03T21:27:57.440Z,24.91
2022-08-03T21:31:59.772Z,24.81
2022-08-03T21:36:02.231Z,24.84
2022-08-03T21:40:06.038Z,24.96
2022-08-03T21:44:07.884Z,24.80
2022-08-03T21:48:12.954Z,24.81
2022-08-03T21:52:15.456Z,24.62
2022-08-03T21:56:20.966Z,24.56
2022-08-03T22:00:23.621Z,24.15
2022-08-03T22:04:50.241Z,24.18
2022-08-03T22:08:48.137Z,24.27
2022-08-03T22:12:49.604Z,24.18
2022-08-03T22:16:51.304Z,23.92
2022-08-03T22:20:53.518Z,23.89
2022-08-03T22:25:03.133Z,23.85
2022-08-03T22:29:08.185Z,23.73
2022-08-03T22:33:12.176Z,23.69
2022-08-03T22:37:16.366Z,23.60
2022-08-03T22:41:18.737Z,23.54
2022-08-03T22:46:07.155Z,23.55
2022-08-03T22:49:43.158Z,23.47
2022-08-03T22:53:45.130Z,23.53
2022-08-03T22:57:46.574Z,23.30
2022-08-03T23:02:02.440Z,23.43
2022-08-03T23:06:19.589Z,23.28
2022-08-03T23:10:24.801Z,23.29
2022-08-03T23:14:30.180Z,23.16
2022-08-03T23:18:37.354Z,22.40
2022-08-03T23:22:42.866Z,23.01
2022-08-03T23:26:44.480Z,23.02
2022-08-03T23:30:46.882Z,22.31
2022-08-03T23:35:09.298Z,22.90
2022-08-03T23:39:11.439Z,22.92
2022-08-03T23:43:16.683Z,22.66
2022-08-03T23:47:47.053Z,22.88
2022-08-03T23:52:07.243Z,22.84
2022-08-03T23:56:08.890Z,22.66
